Webcam

Richtung Osten

METAR LOWZ 201540Z AUTO 36006KT 9999 //////CB FEW110 BKN200 28/16 Q1018=

Richtung Westen

METAR LOWZ 201540Z AUTO 36006KT 9999 //////CB FEW110 BKN200 28/16 Q1018=

Richtung Norden

METAR LOWZ 201540Z AUTO 36006KT 9999 //////CB FEW110 BKN200 28/16 Q1018=